sensor_id;sensor_type;location;lat;lon;timestamp;temperature;humidity
774;DHT22;370;48.810;9.150;2022-12-18T00:02:12;-8.30;12.80
774;DHT22;370;48.810;9.150;2022-12-18T00:04:39;-8.30;14.10
774;DHT22;370;48.810;9.150;2022-12-18T00:07:06;-8.30;13.90
774;DHT22;370;48.810;9.150;2022-12-18T00:09:33;-8.30;13.70
774;DHT22;370;48.810;9.150;2022-12-18T00:11:59;-8.40;13.50
774;DHT22;370;48.810;9.150;2022-12-18T00:14:26;-8.40;13.30
774;DHT22;370;48.810;9.150;2022-12-18T00:16:54;-8.40;13.00
774;DHT22;370;48.810;9.150;2022-12-18T00:19:23;-8.40;13.00
774;DHT22;370;48.810;9.150;2022-12-18T00:21:50;-8.50;12.40
774;DHT22;370;48.810;9.150;2022-12-18T00:24:17;-8.50;13.00
774;DHT22;370;48.810;9.150;2022-12-18T00:26:44;-8.50;13.00
774;DHT22;370;48.810;9.150;2022-12-18T00:29:13;-8.50;13.70
774;DHT22;370;48.810;9.150;2022-12-18T00:31:40;-8.50;14.40
774;DHT22;370;48.810;9.150;2022-12-18T00:34:11;-8.50;14.20
774;DHT22;370;48.810;9.150;2022-12-18T00:36:39;-8.50;14.20
774;DHT22;370;48.810;9.150;2022-12-18T00:39:07;-8.50;14.30
774;DHT22;370;48.810;9.150;2022-12-18T00:41:34;-8.50;14.50
774;DHT22;370;48.810;9.150;2022-12-18T00:44:19;-8.50;14.60
774;DHT22;370;48.810;9.150;2022-12-18T00:46:47;-8.50;14.90
774;DHT22;370;48.810;9.150;2022-12-18T00:49:19;-8.50;15.40
774;DHT22;370;48.810;9.150;2022-12-18T00:51:47;-8.50;16.50
774;DHT22;370;48.810;9.150;2022-12-18T00:54:14;-8.50;17.60
774;DHT22;370;48.810;9.150;2022-12-18T00:56:42;-8.50;17.90
774;DHT22;370;48.810;9.150;2022-12-18T00:59:10;-8.60;18.00
774;DHT22;370;48.810;9.150;2022-12-18T01:01:36;-8.50;18.30
774;DHT22;370;48.810;9.150;2022-12-18T01:04:03;-8.50;17.40
774;DHT22;370;48.810;9.150;2022-12-18T01:06:32;-8.50;16.80
774;DHT22;370;48.810;9.150;2022-12-18T01:08:58;-8.50;16.10
774;DHT22;370;48.810;9.150;2022-12-18T01:11:25;-8.50;15.60
774;DHT22;370;48.810;9.150;2022-12-18T01:13:53;-8.60;15.30
774;DHT22;370;48.810;9.150;2022-12-18T01:16:20;-8.60;15.20
774;DHT22;370;48.810;9.150;2022-12-18T01:18:47;-8.60;15.10
774;DHT22;370;48.810;9.150;2022-12-18T01:21:15;-8.60;14.60
774;DHT22;370;48.810;9.150;2022-12-18T01:23:43;-8.60;14.20
774;DHT22;370;48.810;9.150;2022-12-18T01:26:12;-8.60;13.90
774;DHT22;370;48.810;9.150;2022-12-18T01:28:40;-8.70;13.40
774;DHT22;370;48.810;9.150;2022-12-18T01:31:15;-8.70;12.60
774;DHT22;370;48.810;9.150;2022-12-18T01:33:42;-8.70;12.00
774;DHT22;370;48.810;9.150;2022-12-18T01:36:15;-8.80;11.10
774;DHT22;370;48.810;9.150;2022-12-18T01:38:44;-8.80;11.10
774;DHT22;370;48.810;9.150;2022-12-18T01:41:11;-8.80;11.10
774;DHT22;370;48.810;9.150;2022-12-18T01:43:46;-8.80;11.80
774;DHT22;370;48.810;9.150;2022-12-18T01:46:14;-8.80;11.50
774;DHT22;370;48.810;9.150;2022-12-18T01:48:41;-8.80;11.90
774;DHT22;370;48.810;9.150;2022-12-18T01:51:10;-8.80;12.00
774;DHT22;370;48.810;9.150;2022-12-18T01:53:39;-8.80;12.20
774;DHT22;370;48.810;9.150;2022-12-18T01:56:08;-8.80;12.40
774;DHT22;370;48.810;9.150;2022-12-18T01:58:48;-8.80;13.00
774;DHT22;370;48.810;9.150;2022-12-18T02:01:15;-8.70;13.30
774;DHT22;370;48.810;9.150;2022-12-18T02:03:43;-8.70;13.20
774;DHT22;370;48.810;9.150;2022-12-18T02:06:14;-8.60;13.40
774;DHT22;370;48.810;9.150;2022-12-18T02:08:48;-8.60;13.50
774;DHT22;370;48.810;9.150;2022-12-18T02:11:24;-8.50;14.60
774;DHT22;370;48.810;9.150;2022-12-18T02:14:01;-8.40;16.30
774;DHT22;370;48.810;9.150;2022-12-18T02:16:36;-8.30;17.10
774;DHT22;370;48.810;9.150;2022-12-18T02:19:12;-8.20;17.50
774;DHT22;370;48.810;9.150;2022-12-18T02:21:48;-8.10;17.60
774;DHT22;370;48.810;9.150;2022-12-18T02:24:24;-8.00;17.40
774;DHT22;370;48.810;9.150;2022-12-18T02:26:59;-7.90;16.70
774;DHT22;370;48.810;9.150;2022-12-18T02:29:31;-7.80;16.40
774;DHT22;370;48.810;9.150;2022-12-18T02:31:59;-7.80;15.80
774;DHT22;370;48.810;9.150;2022-12-18T02:34:29;-7.70;16.50
774;DHT22;370;48.810;9.150;2022-12-18T02:36:58;-7.60;16.40
774;DHT22;370;48.810;9.150;2022-12-18T02:39:28;-7.60;16.40
774;DHT22;370;48.810;9.150;2022-12-18T02:41:57;-7.70;16.40
774;DHT22;370;48.810;9.150;2022-12-18T02:44:25;-7.60;16.90
774;DHT22;370;48.810;9.150;2022-12-18T02:46:52;-7.60;16.80
774;DHT22;370;48.810;9.150;2022-12-18T02:49:31;-7.60;16.40
774;DHT22;370;48.810;9.150;2022-12-18T02:52:07;-7.60;17.40
774;DHT22;370;48.810;9.150;2022-12-18T02:54:43;-7.60;18.00
774;DHT22;370;48.810;9.150;2022-12-18T02:57:21;-7.50;17.40
774;DHT22;370;48.810;9.150;2022-12-18T02:59:56;-7.60;15.70
774;DHT22;370;48.810;9.150;2022-12-18T03:02:29;-7.60;16.40
774;DHT22;370;48.810;9.150;2022-12-18T03:05:02;-7.60;16.40
774;DHT22;370;48.810;9.150;2022-12-18T03:07:35;-7.60;17.40
774;DHT22;370;48.810;9.150;2022-12-18T03:10:07;-7.50;18.00
774;DHT22;370;48.810;9.150;2022-12-18T03:12:41;-7.50;17.40
774;DHT22;370;48.810;9.150;2022-12-18T03:15:13;-7.60;17.30
774;DHT22;370;48.810;9.150;2022-12-18T03:17:46;-7.50;18.50
774;DHT22;370;48.810;9.150;2022-12-18T03:20:18;-7.50;18.00
774;DHT22;370;48.810;9.150;2022-12-18T03:22:49;-7.60;17.50
774;DHT22;370;48.810;9.150;2022-12-18T03:25:17;-7.60;18.50
774;DHT22;370;48.810;9.150;2022-12-18T03:27:48;-7.70;19.60
774;DHT22;370;48.810;9.150;2022-12-18T03:30:18;-7.70;19.90
774;DHT22;370;48.810;9.150;2022-12-18T03:32:48;-7.70;19.90
774;DHT22;370;48.810;9.150;2022-12-18T03:35:20;-7.60;20.60
774;DHT22;370;48.810;9.150;2022-12-18T03:37:48;-7.60;20.00
774;DHT22;370;48.810;9.150;2022-12-18T03:40:15;-7.60;20.10
774;DHT22;370;48.810;9.150;2022-12-18T03:42:48;-7.50;20.10
774;DHT22;370;48.810;9.150;2022-12-18T03:45:21;-7.50;18.80
774;DHT22;370;48.810;9.150;2022-12-18T03:47:57;-7.50;18.40
774;DHT22;370;48.810;9.150;2022-12-18T03:50:29;-7.50;18.00
774;DHT22;370;48.810;9.150;2022-12-18T03:53:07;-7.50;16.90
774;DHT22;370;48.810;9.150;2022-12-18T03:55:36;-7.60;16.00
774;DHT22;370;48.810;9.150;2022-12-18T03:58:07;-7.60;15.70
774;DHT22;370;48.810;9.150;2022-12-18T04:00:34;-7.60;14.80
774;DHT22;370;48.810;9.150;2022-12-18T04:03:02;-7.70;14.10
774;DHT22;370;48.810;9.150;2022-12-18T04:05:33;-7.90;14.20
774;DHT22;370;48.810;9.150;2022-12-18T04:08:00;-8.00;15.70
774;DHT22;370;48.810;9.150;2022-12-18T04:10:27;-8.00;16.70
774;DHT22;370;48.810;9.150;2022-12-18T04:12:55;-8.00;16.70
774;DHT22;370;48.810;9.150;2022-12-18T04:15:24;-8.00;16.60
774;DHT22;370;48.810;9.150;2022-12-18T04:17:51;-8.00;16.90
774;DHT22;370;48.810;9.150;2022-12-18T04:20:17;-8.00;17.90
774;DHT22;370;48.810;9.150;2022-12-18T04:22:44;-8.00;17.70
774;DHT22;370;48.810;9.150;2022-12-18T04:25:11;-8.00;18.70
774;DHT22;370;48.810;9.150;2022-12-18T04:27:38;-8.00;19.70
774;DHT22;370;48.810;9.150;2022-12-18T04:30:06;-7.90;19.80
774;DHT22;370;48.810;9.150;2022-12-18T04:32:35;-7.90;19.30
774;DHT22;370;48.810;9.150;2022-12-18T04:35:02;-7.90;18.70
774;DHT22;370;48.810;9.150;2022-12-18T04:37:32;-7.90;18.30
774;DHT22;370;48.810;9.150;2022-12-18T04:39:59;-7.80;17.80
774;DHT22;370;48.810;9.150;2022-12-18T04:42:25;-7.90;17.00
774;DHT22;370;48.810;9.150;2022-12-18T04:44:52;-7.90;17.80
774;DHT22;370;48.810;9.150;2022-12-18T04:47:19;-7.90;18.60
774;DHT22;370;48.810;9.150;2022-12-18T04:49:47;-7.80;19.30
774;DHT22;370;48.810;9.150;2022-12-18T04:52:14;-7.90;18.90
774;DHT22;370;48.810;9.150;2022-12-18T04:54:41;-7.90;18.80
774;DHT22;370;48.810;9.150;2022-12-18T04:57:08;-7.80;18.60
774;DHT22;370;48.810;9.150;2022-12-18T04:59:34;-7.90;17.80
774;DHT22;370;48.810;9.150;2022-12-18T05:02:01;-7.90;18.00
774;DHT22;370;48.810;9.150;2022-12-18T05:04:28;-7.90;17.90
774;DHT22;370;48.810;9.150;2022-12-18T05:06:56;-7.90;17.90
774;DHT22;370;48.810;9.150;2022-12-18T05:09:23;-7.90;17.80
774;DHT22;370;48.810;9.150;2022-12-18T05:11:50;-7.90;18.20
774;DHT22;370;48.810;9.150;2022-12-18T05:14:17;-7.90;17.70
774;DHT22;370;48.810;9.150;2022-12-18T05:16:44;-7.90;17.70
774;DHT22;370;48.810;9.150;2022-12-18T05:19:11;-7.80;17.50
774;DHT22;370;48.810;9.150;2022-12-18T05:21:38;-7.80;17.60
774;DHT22;370;48.810;9.150;2022-12-18T05:24:06;-7.80;17.50
774;DHT22;370;48.810;9.150;2022-12-18T05:26:33;-7.80;17.70
774;DHT22;370;48.810;9.150;2022-12-18T05:29:00;-7.80;16.70
774;DHT22;370;48.810;9.150;2022-12-18T05:31:27;-7.80;17.20
774;DHT22;370;48.810;9.150;2022-12-18T05:33:53;-7.80;17.60
774;DHT22;370;48.810;9.150;2022-12-18T05:36:20;-7.80;17.40
774;DHT22;370;48.810;9.150;2022-12-18T05:38:47;-7.80;17.20
774;DHT22;370;48.810;9.150;2022-12-18T05:41:15;-7.80;17.10
774;DHT22;370;48.810;9.150;2022-12-18T05:43:42;-7.70;16.70
774;DHT22;370;48.810;9.150;2022-12-18T05:46:12;-7.80;15.60
774;DHT22;370;48.810;9.150;2022-12-18T05:48:40;-7.80;15.20
774;DHT22;370;48.810;9.150;2022-12-18T05:51:11;-7.90;14.80
774;DHT22;370;48.810;9.150;2022-12-18T05:53:38;-7.80;15.10
774;DHT22;370;48.810;9.150;2022-12-18T05:56:07;-7.90;14.60
774;DHT22;370;48.810;9.150;2022-12-18T05:58:36;-7.90;14.30
774;DHT22;370;48.810;9.150;2022-12-18T06:01:08;-7.90;14.30
774;DHT22;370;48.810;9.150;2022-12-18T06:03:35;-7.90;14.10
774;DHT22;370;48.810;9.150;2022-12-18T06:06:02;-8.00;13.70
774;DHT22;370;48.810;9.150;2022-12-18T06:08:29;-8.00;13.50
774;DHT22;370;48.810;9.150;2022-12-18T06:10:56;-8.00;13.90
774;DHT22;370;48.810;9.150;2022-12-18T06:13:23;-8.00;13.90
774;DHT22;370;48.810;9.150;2022-12-18T06:15:51;-8.00;14.10
774;DHT22;370;48.810;9.150;2022-12-18T06:18:18;-8.00;13.70
774;DHT22;370;48.810;9.150;2022-12-18T06:20:44;-8.10;12.90
774;DHT22;370;48.810;9.150;2022-12-18T06:23:11;-8.10;13.20
774;DHT22;370;48.810;9.150;2022-12-18T06:25:39;-8.10;12.90
774;DHT22;370;48.810;9.150;2022-12-18T06:28:06;-8.20;12.00
774;DHT22;370;48.810;9.150;2022-12-18T06:30:33;-8.20;12.30
774;DHT22;370;48.810;9.150;2022-12-18T06:33:01;-8.20;12.60
774;DHT22;370;48.810;9.150;2022-12-18T06:35:27;-8.20;13.00
774;DHT22;370;48.810;9.150;2022-12-18T06:37:54;-8.20;13.10
774;DHT22;370;48.810;9.150;2022-12-18T06:40:21;-8.30;12.70
774;DHT22;370;48.810;9.150;2022-12-18T06:42:48;-8.20;13.20
774;DHT22;370;48.810;9.150;2022-12-18T06:45:15;-8.30;12.40
774;DHT22;370;48.810;9.150;2022-12-18T06:47:41;-8.30;13.00
774;DHT22;370;48.810;9.150;2022-12-18T06:50:10;-8.40;12.80
774;DHT22;370;48.810;9.150;2022-12-18T06:52:37;-8.40;12.30
774;DHT22;370;48.810;9.150;2022-12-18T06:55:06;-8.40;12.00
774;DHT22;370;48.810;9.150;2022-12-18T06:57:33;-8.40;11.40
774;DHT22;370;48.810;9.150;2022-12-18T07:00:00;-8.40;11.30
774;DHT22;370;48.810;9.150;2022-12-18T07:02:28;-8.40;11.30
774;DHT22;370;48.810;9.150;2022-12-18T07:04:55;-8.50;11.30
774;DHT22;370;48.810;9.150;2022-12-18T07:07:23;-8.50;11.80
774;DHT22;370;48.810;9.150;2022-12-18T07:09:50;-8.50;11.30
774;DHT22;370;48.810;9.150;2022-12-18T07:12:17;-8.50;11.30
774;DHT22;370;48.810;9.150;2022-12-18T07:14:44;-8.50;11.30
774;DHT22;370;48.810;9.150;2022-12-18T07:17:11;-8.50;11.30
774;DHT22;370;48.810;9.150;2022-12-18T07:19:38;-8.60;11.20
774;DHT22;370;48.810;9.150;2022-12-18T07:22:05;-8.60;11.30
774;DHT22;370;48.810;9.150;2022-12-18T07:24:34;-8.50;11.50
774;DHT22;370;48.810;9.150;2022-12-18T07:27:00;-8.50;11.30
774;DHT22;370;48.810;9.150;2022-12-18T07:29:27;-8.40;11.30
774;DHT22;370;48.810;9.150;2022-12-18T07:31:54;-8.40;12.10
774;DHT22;370;48.810;9.150;2022-12-18T07:34:21;-8.30;12.30
774;DHT22;370;48.810;9.150;2022-12-18T07:36:48;-8.20;13.10
774;DHT22;370;48.810;9.150;2022-12-18T07:39:15;-8.20;12.40
774;DHT22;370;48.810;9.150;2022-12-18T07:41:43;-8.10;12.10
774;DHT22;370;48.810;9.150;2022-12-18T07:44:30;-8.00;12.30
774;DHT22;370;48.810;9.150;2022-12-18T07:46:57;-8.00;11.60
774;DHT22;370;48.810;9.150;2022-12-18T07:49:24;-7.90;11.60
774;DHT22;370;48.810;9.150;2022-12-18T07:51:51;-7.80;11.20
774;DHT22;370;48.810;9.150;2022-12-18T07:54:17;-7.80;10.90
774;DHT22;370;48.810;9.150;2022-12-18T07:56:47;-7.70;11.30
774;DHT22;370;48.810;9.150;2022-12-18T07:59:13;-7.60;11.80
774;DHT22;370;48.810;9.150;2022-12-18T08:01:40;-7.50;11.20
774;DHT22;370;48.810;9.150;2022-12-18T08:04:07;-7.30;11.10
774;DHT22;370;48.810;9.150;2022-12-18T08:06:34;-7.20;10.60
774;DHT22;370;48.810;9.150;2022-12-18T08:09:01;-7.20;10.30
774;DHT22;370;48.810;9.150;2022-12-18T08:11:30;-7.10;10.10
774;DHT22;370;48.810;9.150;2022-12-18T08:13:58;-7.00;9.80
774;DHT22;370;48.810;9.150;2022-12-18T08:16:25;-6.90;9.90
774;DHT22;370;48.810;9.150;2022-12-18T08:18:53;-6.80;9.70
774;DHT22;370;48.810;9.150;2022-12-18T08:21:21;-6.70;8.90
774;DHT22;370;48.810;9.150;2022-12-18T08:23:49;-6.60;8.60
774;DHT22;370;48.810;9.150;2022-12-18T08:26:19;-6.50;8.30
774;DHT22;370;48.810;9.150;2022-12-18T08:28:46;-6.30;7.60
774;DHT22;370;48.810;9.150;2022-12-18T08:31:14;-6.40;7.80
774;DHT22;370;48.810;9.150;2022-12-18T08:33:41;-6.20;7.90
774;DHT22;370;48.810;9.150;2022-12-18T08:36:09;-6.20;7.40
774;DHT22;370;48.810;9.150;2022-12-18T08:38:36;-6.00;6.60
774;DHT22;370;48.810;9.150;2022-12-18T08:41:05;-5.90;6.00
774;DHT22;370;48.810;9.150;2022-12-18T08:43:32;-5.70;5.40
774;DHT22;370;48.810;9.150;2022-12-18T08:46:18;-5.60;5.60
774;DHT22;370;48.810;9.150;2022-12-18T08:48:46;-5.50;5.70
774;DHT22;370;48.810;9.150;2022-12-18T08:51:13;-5.40;5.40
774;DHT22;370;48.810;9.150;2022-12-18T08:53:40;-5.20;4.90
774;DHT22;370;48.810;9.150;2022-12-18T08:56:07;-5.00;4.20
774;DHT22;370;48.810;9.150;2022-12-18T08:58:34;-4.90;4.20
774;DHT22;370;48.810;9.150;2022-12-18T09:01:02;-4.70;4.00
774;DHT22;370;48.810;9.150;2022-12-18T09:03:30;-3.80;14.20
774;DHT22;370;48.810;9.150;2022-12-18T09:05:58;-2.10;25.30
774;DHT22;370;48.810;9.150;2022-12-18T09:08:25;-0.30;31.40
774;DHT22;370;48.810;9.150;2022-12-18T09:10:52;1.70;21.60
774;DHT22;370;48.810;9.150;2022-12-18T09:13:19;3.50;9.20
774;DHT22;370;48.810;9.150;2022-12-18T09:15:48;4.50;1.00
774;DHT22;370;48.810;9.150;2022-12-18T09:18:16;6.00;1.00
774;DHT22;370;48.810;9.150;2022-12-18T09:20:45;7.60;1.00
774;DHT22;370;48.810;9.150;2022-12-18T09:23:12;9.00;1.00
774;DHT22;370;48.810;9.150;2022-12-18T09:25:40;10.10;1.00
774;DHT22;370;48.810;9.150;2022-12-18T09:28:10;9.70;1.00
774;DHT22;370;48.810;9.150;2022-12-18T09:30:37;10.50;1.00
774;DHT22;370;48.810;9.150;2022-12-18T09:33:04;11.30;1.00
774;DHT22;370;48.810;9.150;2022-12-18T09:35:31;11.90;1.00
774;DHT22;370;48.810;9.150;2022-12-18T09:38:00;12.60;1.00
774;DHT22;370;48.810;9.150;2022-12-18T09:40:28;13.30;1.00
774;DHT22;370;48.810;9.150;2022-12-18T09:43:00;13.90;1.00
774;DHT22;370;48.810;9.150;2022-12-18T09:45:30;14.30;1.00
774;DHT22;370;48.810;9.150;2022-12-18T09:47:59;14.80;1.00
774;DHT22;370;48.810;9.150;2022-12-18T09:50:29;14.70;1.00
774;DHT22;370;48.810;9.150;2022-12-18T09:53:02;15.20;1.00
774;DHT22;370;48.810;9.150;2022-12-18T09:55:34;14.90;1.00
774;DHT22;370;48.810;9.150;2022-12-18T09:58:06;14.70;1.00
774;DHT22;370;48.810;9.150;2022-12-18T10:00:35;14.90;1.00
774;DHT22;370;48.810;9.150;2022-12-18T10:03:09;14.50;1.00
774;DHT22;370;48.810;9.150;2022-12-18T10:05:42;11.60;1.00
774;DHT22;370;48.810;9.150;2022-12-18T10:08:17;10.80;1.00
774;DHT22;370;48.810;9.150;2022-12-18T10:10:48;8.30;1.00
774;DHT22;370;48.810;9.150;2022-12-18T10:13:23;7.10;1.00
774;DHT22;370;48.810;9.150;2022-12-18T10:15:58;6.30;1.00
774;DHT22;370;48.810;9.150;2022-12-18T10:18:35;5.00;1.00
774;DHT22;370;48.810;9.150;2022-12-18T10:21:09;4.30;1.00
774;DHT22;370;48.810;9.150;2022-12-18T10:23:43;3.40;1.00
774;DHT22;370;48.810;9.150;2022-12-18T10:26:14;2.50;1.00
774;DHT22;370;48.810;9.150;2022-12-18T10:28:41;2.20;1.00
774;DHT22;370;48.810;9.150;2022-12-18T10:31:14;1.70;1.00
774;DHT22;370;48.810;9.150;2022-12-18T10:33:42;1.40;1.00
774;DHT22;370;48.810;9.150;2022-12-18T10:36:11;1.10;1.00
774;DHT22;370;48.810;9.150;2022-12-18T10:38:43;0.80;1.00
774;DHT22;370;48.810;9.150;2022-12-18T10:41:24;0.70;1.00
774;DHT22;370;48.810;9.150;2022-12-18T10:44:12;0.50;1.00
774;DHT22;370;48.810;9.150;2022-12-18T10:46:39;0.50;1.00
774;DHT22;370;48.810;9.150;2022-12-18T10:49:19;0.60;1.00
774;DHT22;370;48.810;9.150;2022-12-18T10:51:48;0.80;1.00
774;DHT22;370;48.810;9.150;2022-12-18T10:54:21;0.90;1.00
774;DHT22;370;48.810;9.150;2022-12-18T10:56:50;1.00;1.00
774;DHT22;370;48.810;9.150;2022-12-18T10:59:18;1.10;1.00
774;DHT22;370;48.810;9.150;2022-12-18T11:01:53;1.30;1.00
774;DHT22;370;48.810;9.150;2022-12-18T11:04:31;1.40;1.00
774;DHT22;370;48.810;9.150;2022-12-18T11:07:19;0.80;1.00
774;DHT22;370;48.810;9.150;2022-12-18T11:10:01;1.20;1.00
774;DHT22;370;48.810;9.150;2022-12-18T11:12:30;1.40;1.00
774;DHT22;370;48.810;9.150;2022-12-18T11:15:13;1.40;1.00
774;DHT22;370;48.810;9.150;2022-12-18T11:17:48;1.60;1.00
774;DHT22;370;48.810;9.150;2022-12-18T11:20:31;1.70;1.00
774;DHT22;370;48.810;9.150;2022-12-18T11:23:00;1.70;1.00
774;DHT22;370;48.810;9.150;2022-12-18T11:25:29;1.80;1.00
774;DHT22;370;48.810;9.150;2022-12-18T11:27:59;2.30;1.00
774;DHT22;370;48.810;9.150;2022-12-18T11:30:29;4.60;1.00
774;DHT22;370;48.810;9.150;2022-12-18T11:33:00;6.50;1.00
774;DHT22;370;48.810;9.150;2022-12-18T11:35:37;7.90;1.00
774;DHT22;370;48.810;9.150;2022-12-18T11:38:12;9.70;1.00
774;DHT22;370;48.810;9.150;2022-12-18T11:40:47;11.50;1.00
774;DHT22;370;48.810;9.150;2022-12-18T11:43:19;12.60;1.00
774;DHT22;370;48.810;9.150;2022-12-18T11:45:53;13.00;1.00
774;DHT22;370;48.810;9.150;2022-12-18T11:48:24;13.10;1.00
774;DHT22;370;48.810;9.150;2022-12-18T11:50:53;11.80;1.00
774;DHT22;370;48.810;9.150;2022-12-18T11:53:20;10.40;1.00
774;DHT22;370;48.810;9.150;2022-12-18T11:56:05;11.80;1.00
774;DHT22;370;48.810;9.150;2022-12-18T11:58:44;12.70;1.00
774;DHT22;370;48.810;9.150;2022-12-18T12:01:23;12.90;1.00
774;DHT22;370;48.810;9.150;2022-12-18T12:04:07;13.70;1.00
774;DHT22;370;48.810;9.150;2022-12-18T12:06:45;13.40;1.00
774;DHT22;370;48.810;9.150;2022-12-18T12:09:19;13.30;1.00
774;DHT22;370;48.810;9.150;2022-12-18T12:11:58;10.90;1.00
774;DHT22;370;48.810;9.150;2022-12-18T12:14:45;10.60;1.00
774;DHT22;370;48.810;9.150;2022-12-18T12:17:21;10.80;1.00
774;DHT22;370;48.810;9.150;2022-12-18T12:19:56;10.10;1.00
774;DHT22;370;48.810;9.150;2022-12-18T12:22:33;9.50;1.00
774;DHT22;370;48.810;9.150;2022-12-18T12:25:11;9.10;1.00
774;DHT22;370;48.810;9.150;2022-12-18T12:27:51;6.90;1.00
774;DHT22;370;48.810;9.150;2022-12-18T12:30:21;6.20;1.00
774;DHT22;370;48.810;9.150;2022-12-18T12:33:09;4.90;1.00
774;DHT22;370;48.810;9.150;2022-12-18T12:35:47;5.10;1.00
774;DHT22;370;48.810;9.150;2022-12-18T12:38:19;4.20;1.00
774;DHT22;370;48.810;9.150;2022-12-18T12:40:51;4.10;1.00
774;DHT22;370;48.810;9.150;2022-12-18T12:43:29;3.30;1.00
774;DHT22;370;48.810;9.150;2022-12-18T12:46:00;3.00;1.00
774;DHT22;370;48.810;9.150;2022-12-18T12:48:36;2.30;1.00
774;DHT22;370;48.810;9.150;2022-12-18T12:51:12;1.90;1.00
774;DHT22;370;48.810;9.150;2022-12-18T12:53:41;1.80;1.00
774;DHT22;370;48.810;9.150;2022-12-18T12:56:10;1.80;1.00
774;DHT22;370;48.810;9.150;2022-12-18T12:58:51;1.80;1.00
774;DHT22;370;48.810;9.150;2022-12-18T13:01:27;1.90;1.00
774;DHT22;370;48.810;9.150;2022-12-18T13:04:03;2.30;1.00
774;DHT22;370;48.810;9.150;2022-12-18T13:06:41;2.60;1.00
774;DHT22;370;48.810;9.150;2022-12-18T13:09:10;2.90;1.00
774;DHT22;370;48.810;9.150;2022-12-18T13:11:38;3.00;1.00
774;DHT22;370;48.810;9.150;2022-12-18T13:14:28;3.10;1.00
774;DHT22;370;48.810;9.150;2022-12-18T13:17:14;3.20;1.00
774;DHT22;370;48.810;9.150;2022-12-18T13:19:41;3.20;1.00
774;DHT22;370;48.810;9.150;2022-12-18T13:22:21;2.60;1.00
774;DHT22;370;48.810;9.150;2022-12-18T13:24:49;2.20;1.00
774;DHT22;370;48.810;9.150;2022-12-18T13:27:51;2.30;1.00
774;DHT22;370;48.810;9.150;2022-12-18T13:30:56;2.40;1.00
774;DHT22;370;48.810;9.150;2022-12-18T13:33:47;2.30;1.00
774;DHT22;370;48.810;9.150;2022-12-18T13:36:16;1.80;1.00
774;DHT22;370;48.810;9.150;2022-12-18T13:41:53;2.00;1.00
774;DHT22;370;48.810;9.150;2022-12-18T13:44:26;2.20;1.00
774;DHT22;370;48.810;9.150;2022-12-18T13:46:57;2.10;1.00
774;DHT22;370;48.810;9.150;2022-12-18T13:49:27;2.20;1.00
774;DHT22;370;48.810;9.150;2022-12-18T13:51:57;2.20;1.00
774;DHT22;370;48.810;9.150;2022-12-18T13:54:33;1.80;1.00
774;DHT22;370;48.810;9.150;2022-12-18T13:57:01;1.70;1.00
774;DHT22;370;48.810;9.150;2022-12-18T13:59:34;1.40;1.00
774;DHT22;370;48.810;9.150;2022-12-18T14:02:13;1.50;1.00
774;DHT22;370;48.810;9.150;2022-12-18T14:04:40;1.50;1.00
774;DHT22;370;48.810;9.150;2022-12-18T14:07:10;1.30;1.00
774;DHT22;370;48.810;9.150;2022-12-18T14:09:42;1.10;1.00
774;DHT22;370;48.810;9.150;2022-12-18T14:12:15;1.20;1.00
774;DHT22;370;48.810;9.150;2022-12-18T14:15:01;1.30;1.00
774;DHT22;370;48.810;9.150;2022-12-18T14:17:31;1.30;1.00
774;DHT22;370;48.810;9.150;2022-12-18T14:19:58;1.30;1.00
774;DHT22;370;48.810;9.150;2022-12-18T14:22:25;1.20;1.00
774;DHT22;370;48.810;9.150;2022-12-18T14:25:19;0.90;1.00
774;DHT22;370;48.810;9.150;2022-12-18T14:27:49;0.50;1.00
774;DHT22;370;48.810;9.150;2022-12-18T14:30:28;0.50;1.00
774;DHT22;370;48.810;9.150;2022-12-18T14:33:10;0.40;1.00
774;DHT22;370;48.810;9.150;2022-12-18T14:35:39;0.10;1.00
774;DHT22;370;48.810;9.150;2022-12-18T14:38:26;0.00;1.00
774;DHT22;370;48.810;9.150;2022-12-18T14:40:54;0.00;1.00
774;DHT22;370;48.810;9.150;2022-12-18T14:43:21;0.10;1.00
774;DHT22;370;48.810;9.150;2022-12-18T14:45:48;0.10;1.00
774;DHT22;370;48.810;9.150;2022-12-18T14:48:19;0.10;1.00
774;DHT22;370;48.810;9.150;2022-12-18T14:50:56;0.10;1.00
774;DHT22;370;48.810;9.150;2022-12-18T14:53:32;0.10;1.00
774;DHT22;370;48.810;9.150;2022-12-18T14:56:00;0.00;1.00
774;DHT22;370;48.810;9.150;2022-12-18T14:58:27;-0.10;1.00
774;DHT22;370;48.810;9.150;2022-12-18T15:00:54;-0.20;1.00
774;DHT22;370;48.810;9.150;2022-12-18T15:03:22;-0.50;1.00
774;DHT22;370;48.810;9.150;2022-12-18T15:05:49;-0.70;1.00
774;DHT22;370;48.810;9.150;2022-12-18T15:08:31;-0.90;1.00
774;DHT22;370;48.810;9.150;2022-12-18T15:11:00;-1.10;1.00
774;DHT22;370;48.810;9.150;2022-12-18T15:13:27;-1.20;1.00
774;DHT22;370;48.810;9.150;2022-12-18T15:15:54;-1.20;1.00
774;DHT22;370;48.810;9.150;2022-12-18T15:18:30;-1.30;1.00
774;DHT22;370;48.810;9.150;2022-12-18T15:21:00;-1.40;2.90
774;DHT22;370;48.810;9.150;2022-12-18T15:23:38;-1.50;3.60
774;DHT22;370;48.810;9.150;2022-12-18T15:26:13;-1.50;3.30
774;DHT22;370;48.810;9.150;2022-12-18T15:28:44;-1.70;4.70
774;DHT22;370;48.810;9.150;2022-12-18T15:31:28;-1.70;5.60
774;DHT22;370;48.810;9.150;2022-12-18T15:34:12;-1.80;6.00
774;DHT22;370;48.810;9.150;2022-12-18T15:36:39;-1.90;7.00
774;DHT22;370;48.810;9.150;2022-12-18T15:39:09;-1.90;7.00
774;DHT22;370;48.810;9.150;2022-12-18T15:41:36;-2.00;7.00
774;DHT22;370;48.810;9.150;2022-12-18T15:44:21;-1.90;7.30
774;DHT22;370;48.810;9.150;2022-12-18T15:46:47;-2.10;7.90
774;DHT22;370;48.810;9.150;2022-12-18T15:49:15;-2.10;8.00
774;DHT22;370;48.810;9.150;2022-12-18T15:51:42;-2.10;8.10
774;DHT22;370;48.810;9.150;2022-12-18T15:54:13;-2.10;7.70
774;DHT22;370;48.810;9.150;2022-12-18T15:56:41;-2.20;8.50
774;DHT22;370;48.810;9.150;2022-12-18T15:59:26;-2.10;7.90
774;DHT22;370;48.810;9.150;2022-12-18T16:01:53;-2.10;7.70
774;DHT22;370;48.810;9.150;2022-12-18T16:04:22;-2.10;7.80
774;DHT22;370;48.810;9.150;2022-12-18T16:06:49;-2.10;7.60
774;DHT22;370;48.810;9.150;2022-12-18T16:09:17;-2.10;7.30
774;DHT22;370;48.810;9.150;2022-12-18T16:11:44;-2.20;7.40
774;DHT22;370;48.810;9.150;2022-12-18T16:14:16;-2.30;8.10
774;DHT22;370;48.810;9.150;2022-12-18T16:16:45;-2.20;8.50
774;DHT22;370;48.810;9.150;2022-12-18T16:19:12;-2.20;8.20
774;DHT22;370;48.810;9.150;2022-12-18T16:21:41;-2.20;8.30
774;DHT22;370;48.810;9.150;2022-12-18T16:24:13;-2.20;8.20
774;DHT22;370;48.810;9.150;2022-12-18T16:26:40;-2.20;8.50
774;DHT22;370;48.810;9.150;2022-12-18T16:29:08;-2.20;9.00
774;DHT22;370;48.810;9.150;2022-12-18T16:31:35;-2.30;9.50
774;DHT22;370;48.810;9.150;2022-12-18T16:34:18;-2.30;9.20
774;DHT22;370;48.810;9.150;2022-12-18T16:36:48;-2.30;9.80
774;DHT22;370;48.810;9.150;2022-12-18T16:39:15;-2.20;9.30
774;DHT22;370;48.810;9.150;2022-12-18T16:41:42;-2.20;8.70
774;DHT22;370;48.810;9.150;2022-12-18T16:44:09;-2.20;9.00
774;DHT22;370;48.810;9.150;2022-12-18T16:46:36;-2.10;8.00
774;DHT22;370;48.810;9.150;2022-12-18T16:49:04;-2.10;8.00
774;DHT22;370;48.810;9.150;2022-12-18T16:51:31;-2.00;7.20
774;DHT22;370;48.810;9.150;2022-12-18T16:53:59;-1.90;7.00
774;DHT22;370;48.810;9.150;2022-12-18T16:56:26;-1.90;7.00
774;DHT22;370;48.810;9.150;2022-12-18T16:58:54;-1.80;7.00
774;DHT22;370;48.810;9.150;2022-12-18T17:01:22;-1.80;6.90
774;DHT22;370;48.810;9.150;2022-12-18T17:03:52;-1.70;6.90
774;DHT22;370;48.810;9.150;2022-12-18T17:06:20;-1.90;7.10
774;DHT22;370;48.810;9.150;2022-12-18T17:08:47;-1.90;7.00
774;DHT22;370;48.810;9.150;2022-12-18T17:11:15;-1.90;7.00
774;DHT22;370;48.810;9.150;2022-12-18T17:13:42;-1.80;7.10